Time;durP1;ratioP1;P1;durP2;ratioP2;P2;SDS_P1;SDS_P2;PMS_P1;PMS_P2;Temp;Humidity;BMP_temperature;BMP_pressure;BME280_temperature;BME280_humidity;BME280_pressure;Samples;Min_cycle;Max_cycle;Signal;HPM_P1;HPM_P2
2024/03/30 00:00:20;;;;;;;;;;;;;;;;;;5053519;28;19909;-72
2024/03/30 00:02:46;;;;;;;;;;;;;;;;;;5053265;28;20004;-72
2024/03/30 00:05:12;;;;;;;;;;;;;;;;;;5053007;28;20007;-72
2024/03/30 00:07:41;;;;;;;;;;;;;;;;;;5053201;28;19917;-73
2024/03/30 00:10:07;;;;;;;;;;;;;;;;;;5053016;28;19919;-71
2024/03/30 00:12:32;;;;;;;;;;;;;;;;;;5053170;28;20003;-71
2024/03/30 00:14:58;;;;;;;;;;;;;;;;;;5055439;28;19909;-72
2024/03/30 00:17:24;;;;;;;;;;;;;;;;;;5056602;28;19975;-71
2024/03/30 00:19:50;;;;;;;;;;;;;;;;;;5057049;28;19908;-72
2024/03/30 00:22:16;;;;;;;;;;;;;;;;;;5055662;28;20272;-72
2024/03/30 00:24:42;;;;;;;;;;;;;;;;;;5056499;28;19940;-72
2024/03/30 00:27:08;;;;;;;;;;;;;;;;;;5056581;28;19920;-72
2024/03/30 00:29:34;;;;;;;;;;;;;;;;;;5055607;28;19908;-72
2024/03/30 00:32:00;;;;;;;;;;;;;;;;;;5056411;28;20281;-72
2024/03/30 00:34:26;;;;;;;;;;;;;;;;;;5056734;28;19909;-72
2024/03/30 00:36:52;;;;;;;;;;;;;;;;;;5056980;28;20331;-72
2024/03/30 00:39:19;;;;;;;;;;;;;;;;;;5054962;28;19909;-71
2024/03/30 00:41:45;;;;;;;;;;;;;;;;;;5056623;28;20404;-72
2024/03/30 00:44:11;;;;;;;;;;;;;;;;;;5056708;28;19909;-72
2024/03/30 00:46:37;;;;;;;;;;;;;;;;;;5056172;28;20388;-72
2024/03/30 00:49:03;;;;;;;;;;;;;;;;;;5056380;28;19971;-72
2024/03/30 00:51:29;;;;;;;;;;;;;;;;;;5056413;28;19935;-72
2024/03/30 00:53:55;;;;;;;;;;;;;;;;;;5055992;28;19966;-72
2024/03/30 00:56:21;;;;;;;;;;;;;;;;;;5055069;28;19916;-71
2024/03/30 00:58:47;;;;;;;;;;;;;;;;;;5056318;28;19920;-72
2024/03/30 01:01:16;;;;;;;;;;;;;;;;;;5054532;28;19954;-71
2024/03/30 01:03:42;;;;;;;;;;;;;;;;;;5054927;28;19935;-72
2024/03/30 01:06:08;;;;;;;;;;;;;;;;;;5056142;28;19913;-71
2024/03/30 01:08:34;;;;;;;;;;;;;;;;;;5055648;28;20304;-71
2024/03/30 01:11:00;;;;;;;;;;;;;;;;;;5056103;28;19909;-72
2024/03/30 01:13:26;;;;;;;;;;;;;;;;;;5055640;28;19909;-72
2024/03/30 01:15:52;;;;;;;;;;;;;;;;;;5055924;28;19971;-71
2024/03/30 01:18:18;;;;;;;;;;;;;;;;;;5055909;28;19948;-71
2024/03/30 01:20:44;;;;;;;;;;;;;;;;;;5055488;28;19909;-71
2024/03/30 01:23:10;;;;;;;;;;;;;;;;;;5055747;28;20250;-71
2024/03/30 01:25:36;;;;;;;;;;;;;;;;;;5055857;28;20361;-72
2024/03/30 01:28:02;;;;;;;;;;;;;;;;;;5053864;28;20422;-72
2024/03/30 01:30:28;;;;;;;;;;;;;;;;;;5055896;28;20277;-72
2024/03/30 01:32:54;;;;;;;;;;;;;;;;;;5055645;28;19966;-72
2024/03/30 01:35:20;;;;;;;;;;;;;;;;;;5055247;28;19974;-72
2024/03/30 01:37:46;;;;;;;;;;;;;;;;;;5055543;28;19908;-72
2024/03/30 01:40:11;;;;;;;;;;;;;;;;;;5055507;28;19908;-72
2024/03/30 01:42:38;;;;;;;;;;;;;;;;;;5055038;28;19916;-72
2024/03/30 01:45:04;;;;;;;;;;;;;;;;;;5055364;28;20328;-72
2024/03/30 01:47:30;;;;;;;;;;;;;;;;;;5055259;28;19913;-72
2024/03/30 01:49:56;;;;;;;;;;;;;;;;;;5054930;28;19995;-73
2024/03/30 01:52:22;;;;;;;;;;;;;;;;;;5055506;28;20404;-72
2024/03/30 01:54:48;;;;;;;;;;;;;;;;;;5055319;28;19955;-72
2024/03/30 01:57:14;;;;;;;;;;;;;;;;;;5053560;28;19920;-72
2024/03/30 01:59:40;;;;;;;;;;;;;;;;;;5055109;28;19912;-73
2024/03/30 02:02:06;;;;;;;;;;;;;;;;;;5055177;28;19915;-72
2024/03/30 02:04:32;;;;;;;;;;;;;;;;;;5054716;28;19916;-72
2024/03/30 02:06:58;;;;;;;;;;;;;;;;;;5054985;28;19931;-72
2024/03/30 02:09:24;;;;;;;;;;;;;;;;;;5054881;28;19920;-72
2024/03/30 02:11:50;;;;;;;;;;;;;;;;;;5054572;28;19909;-72
2024/03/30 02:14:16;;;;;;;;;;;;;;;;;;5054831;28;19916;-72
2024/03/30 02:16:42;;;;;;;;;;;;;;;;;;5054797;28;19909;-72
2024/03/30 02:19:08;;;;;;;;;;;;;;;;;;5054806;28;20009;-72
2024/03/30 02:21:33;;;;;;;;;;;;;;;;;;5054664;28;19909;-72
2024/03/30 02:23:59;;;;;;;;;;;;;;;;;;5054232;28;19955;-72
2024/03/30 02:26:26;;;;;;;;;;;;;;;;;;5054595;28;19912;-72
2024/03/30 02:28:52;;;;;;;;;;;;;;;;;;5054302;28;19961;-72
2024/03/30 02:31:18;;;;;;;;;;;;;;;;;;5054067;28;19908;-72
2024/03/30 02:33:44;;;;;;;;;;;;;;;;;;5054521;28;19909;-72
2024/03/30 02:36:10;;;;;;;;;;;;;;;;;;5054223;28;19908;-72
2024/03/30 02:38:36;;;;;;;;;;;;;;;;;;5052371;28;19909;-72
2024/03/30 02:41:02;;;;;;;;;;;;;;;;;;5054346;28;19909;-72
2024/03/30 02:43:28;;;;;;;;;;;;;;;;;;5054316;28;19916;-72
2024/03/30 02:45:54;;;;;;;;;;;;;;;;;;5054040;28;19913;-72
2024/03/30 02:48:20;;;;;;;;;;;;;;;;;;5054140;28;20284;-72
2024/03/30 02:50:46;;;;;;;;;;;;;;;;;;5054183;28;19936;-72
2024/03/30 02:53:12;;;;;;;;;;;;;;;;;;5053747;28;19908;-72
2024/03/30 02:55:38;;;;;;;;;;;;;;;;;;5054115;28;19944;-72
2024/03/30 02:58:04;;;;;;;;;;;;;;;;;;5052751;28;20011;-73
2024/03/30 03:00:30;;;;;;;;;;;;;;;;;;5052389;28;19909;-72
2024/03/30 03:02:56;;;;;;;;;;;;;;;;;;5052704;28;19909;-72
2024/03/30 03:05:22;;;;;;;;;;;;;;;;;;5053947;28;19909;-70
2024/03/30 03:07:48;;;;;;;;;;;;;;;;;;5053445;28;19960;-72
2024/03/30 03:10:14;;;;;;;;;;;;;;;;;;5053852;28;19909;-73
2024/03/30 03:12:39;;;;;;;;;;;;;;;;;;5053827;28;19909;-72
2024/03/30 03:15:06;;;;;;;;;;;;;;;;;;5052154;28;20328;-72
2024/03/30 03:17:32;;;;;;;;;;;;;;;;;;5054395;28;19909;-72
2024/03/30 03:19:58;;;;;;;;;;;;;;;;;;5053767;28;19909;-72
2024/03/30 03:22:24;;;;;;;;;;;;;;;;;;5052073;28;19952;-72
2024/03/30 03:24:50;;;;;;;;;;;;;;;;;;5053697;28;19915;-73
2024/03/30 03:27:16;;;;;;;;;;;;;;;;;;5053063;28;20358;-72
2024/03/30 03:29:42;;;;;;;;;;;;;;;;;;5053832;28;20353;-72
2024/03/30 03:32:08;;;;;;;;;;;;;;;;;;5053747;28;19909;-72
2024/03/30 03:34:34;;;;;;;;;;;;;;;;;;5053214;28;19909;-72
2024/03/30 03:37:00;;;;;;;;;;;;;;;;;;5053652;28;20008;-72
2024/03/30 03:39:26;;;;;;;;;;;;;;;;;;5053674;28;19935;-72
2024/03/30 03:41:51;;;;;;;;;;;;;;;;;;5053212;28;19908;-72
2024/03/30 03:44:17;;;;;;;;;;;;;;;;;;5053565;28;20316;-72
2024/03/30 03:46:43;;;;;;;;;;;;;;;;;;5052287;28;20361;-72
2024/03/30 03:49:09;;;;;;;;;;;;;;;;;;5054013;28;20384;-72
2024/03/30 03:51:35;;;;;;;;;;;;;;;;;;5057490;28;20379;-72
2024/03/30 03:54:01;;;;;;;;;;;;;;;;;;5057458;28;20038;-72
2024/03/30 03:56:27;;;;;;;;;;;;;;;;;;5056998;28;19912;-72
2024/03/30 03:58:53;;;;;;;;;;;;;;;;;;5057429;28;19948;-72
2024/03/30 04:01:20;;;;;;;;;;;;;;;;;;5057346;28;20235;-72
2024/03/30 04:03:46;;;;;;;;;;;;;;;;;;5057107;28;20003;-72
2024/03/30 04:06:12;;;;;;;;;;;;;;;;;;5057355;28;20340;-72
2024/03/30 04:08:37;;;;;;;;;;;;;;;;;;5057251;28;20292;-72
2024/03/30 04:11:04;;;;;;;;;;;;;;;;;;5056988;28;19959;-72
2024/03/30 04:13:29;;;;;;;;;;;;;;;;;;5057140;28;19915;-72
2024/03/30 04:15:55;;;;;;;;;;;;;;;;;;5057075;28;20320;-72
2024/03/30 04:18:21;;;;;;;;;;;;;;;;;;5056789;28;19948;-72
2024/03/30 04:20:47;;;;;;;;;;;;;;;;;;5057292;28;19913;-72
2024/03/30 04:23:13;;;;;;;;;;;;;;;;;;5056955;28;19916;-72
2024/03/30 04:25:39;;;;;;;;;;;;;;;;;;5056458;28;19915;-72
2024/03/30 04:28:05;;;;;;;;;;;;;;;;;;5056633;28;19960;-72
2024/03/30 04:30:31;;;;;;;;;;;;;;;;;;5056592;28;19909;-72
2024/03/30 04:32:57;;;;;;;;;;;;;;;;;;5057055;28;19913;-72
2024/03/30 04:35:23;;;;;;;;;;;;;;;;;;5056717;28;19943;-72
2024/03/30 04:37:49;;;;;;;;;;;;;;;;;;5056401;28;19909;-72
2024/03/30 04:40:15;;;;;;;;;;;;;;;;;;5055372;28;19908;-72
2024/03/30 04:42:41;;;;;;;;;;;;;;;;;;5056695;28;20016;-72
2024/03/30 04:45:06;;;;;;;;;;;;;;;;;;5054915;28;19960;-72
2024/03/30 04:47:32;;;;;;;;;;;;;;;;;;5056478;28;19924;-72
2024/03/30 04:49:58;;;;;;;;;;;;;;;;;;5056478;28;19909;-72
2024/03/30 04:52:24;;;;;;;;;;;;;;;;;;5056045;28;20250;-72
2024/03/30 04:54:50;;;;;;;;;;;;;;;;;;5056744;28;20327;-72
2024/03/30 04:57:16;;;;;;;;;;;;;;;;;;5056860;28;20475;-72
2024/03/30 04:59:42;;;;;;;;;;;;;;;;;;5055366;28;19916;-72
2024/03/30 05:02:08;;;;;;;;;;;;;;;;;;5056288;28;19916;-72
2024/03/30 05:04:34;;;;;;;;;;;;;;;;;;5056220;28;19909;-72
2024/03/30 05:07:00;;;;;;;;;;;;;;;;;;5055782;28;19940;-72
2024/03/30 05:09:26;;;;;;;;;;;;;;;;;;5056109;28;19952;-72
2024/03/30 05:11:52;;;;;;;;;;;;;;;;;;5056300;28;19916;-72
2024/03/30 05:14:18;;;;;;;;;;;;;;;;;;5055596;28;19916;-72
2024/03/30 05:16:44;;;;;;;;;;;;;;;;;;5055999;28;20007;-72
2024/03/30 05:20:48;;;;;;;;;;;;;;;;;;5056092;28;19908;-72
2024/03/30 05:21:56;;;;;;;;;;;;;;;;;;5055509;28;19909;-72
2024/03/30 05:24:21;;;;;;;;;;;;;;;;;;5055746;28;20012;-72
2024/03/30 05:26:47;;;;;;;;;;;;;;;;;;5055201;28;19968;-71
2024/03/30 05:29:13;;;;;;;;;;;;;;;;;;5055659;28;20293;-72
2024/03/30 05:31:39;;;;;;;;;;;;;;;;;;5055770;28;20343;-72
2024/03/30 05:34:05;;;;;;;;;;;;;;;;;;5055269;28;20353;-72
2024/03/30 05:36:31;;;;;;;;;;;;;;;;;;5054340;28;20297;-72
2024/03/30 05:38:57;;;;;;;;;;;;;;;;;;5055597;28;20377;-72
2024/03/30 05:41:23;;;;;;;;;;;;;;;;;;5055254;28;19920;-72
2024/03/30 05:43:49;;;;;;;;;;;;;;;;;;5054167;28;19909;-72
2024/03/30 05:46:15;;;;;;;;;;;;;;;;;;5055543;28;19955;-72
2024/03/30 05:48:41;;;;;;;;;;;;;;;;;;5054852;28;19917;-72
2024/03/30 05:51:07;;;;;;;;;;;;;;;;;;5055274;28;19909;-71
2024/03/30 05:53:33;;;;;;;;;;;;;;;;;;5053981;28;19955;-72
2024/03/30 05:55:59;;;;;;;;;;;;;;;;;;5054768;28;19955;-71
2024/03/30 05:58:25;;;;;;;;;;;;;;;;;;5055387;28;19909;-72
2024/03/30 06:00:51;;;;;;;;;;;;;;;;;;5055112;28;20011;-72
2024/03/30 06:03:17;;;;;;;;;;;;;;;;;;5054844;28;19912;-72
2024/03/30 06:05:43;;;;;;;;;;;;;;;;;;5055022;28;19913;-73
2024/03/30 06:08:09;;;;;;;;;;;;;;;;;;5054990;28;19924;-72
2024/03/30 06:10:35;;;;;;;;;;;;;;;;;;5054646;28;20350;-72
2024/03/30 06:13:01;;;;;;;;;;;;;;;;;;5054570;28;20381;-72
2024/03/30 06:15:27;;;;;;;;;;;;;;;;;;5054804;28;19920;-72
2024/03/30 06:17:53;;;;;;;;;;;;;;;;;;5054452;28;19912;-73
2024/03/30 06:20:19;;;;;;;;;;;;;;;;;;5054844;28;19908;-72
2024/03/30 06:22:45;;;;;;;;;;;;;;;;;;5054834;28;19909;-72
2024/03/30 06:25:11;;;;;;;;;;;;;;;;;;5053033;28;19916;-72
2024/03/30 06:27:37;;;;;;;;;;;;;;;;;;5054500;28;19925;-71
2024/03/30 06:30:03;;;;;;;;;;;;;;;;;;5054193;28;19913;-73
2024/03/30 06:32:29;;;;;;;;;;;;;;;;;;5054531;28;19908;-73
2024/03/30 06:34:55;;;;;;;;;;;;;;;;;;5053253;28;20019;-72
2024/03/30 06:37:21;;;;;;;;;;;;;;;;;;5052820;28;19909;-72
2024/03/30 06:45:16;;;;;;;;;;;;;;;;;;5054136;28;20372;-72
2024/03/30 06:47:42;;;;;;;;;;;;;;;;;;5054171;28;19924;-72
2024/03/30 06:50:08;;;;;;;;;;;;;;;;;;5054367;28;19909;-72
2024/03/30 06:52:34;;;;;;;;;;;;;;;;;;5052523;28;19955;-72
2024/03/30 06:55:00;;;;;;;;;;;;;;;;;;5052858;28;19995;-72
2024/03/30 06:57:26;;;;;;;;;;;;;;;;;;5054197;28;19909;-72
2024/03/30 06:59:52;;;;;;;;;;;;;;;;;;5054086;28;19913;-73
2024/03/30 07:02:18;;;;;;;;;;;;;;;;;;5054040;28;19955;-71
2024/03/30 07:04:44;;;;;;;;;;;;;;;;;;5054180;28;19915;-71
2024/03/30 07:07:09;;;;;;;;;;;;;;;;;;5053401;28;19909;-71
2024/03/30 07:09:35;;;;;;;;;;;;;;;;;;5053918;28;19913;-70
2024/03/30 07:12:01;;;;;;;;;;;;;;;;;;5053945;28;19913;-71
2024/03/30 07:14:27;;;;;;;;;;;;;;;;;;5053521;28;19912;-71
2024/03/30 07:16:55;;;;;;;;;;;;;;;;;;5053864;28;19928;-72
2024/03/30 07:19:21;;;;;;;;;;;;;;;;;;5053581;28;19909;-72
2024/03/30 07:21:47;;;;;;;;;;;;;;;;;;5054011;28;19920;-72
2024/03/30 07:24:13;;;;;;;;;;;;;;;;;;5053915;28;19915;-72
2024/03/30 07:26:39;;;;;;;;;;;;;;;;;;5053162;28;19909;-71
2024/03/30 07:29:05;;;;;;;;;;;;;;;;;;5053543;28;19921;-72
2024/03/30 07:31:31;;;;;;;;;;;;;;;;;;5053707;28;19913;-72
2024/03/30 07:33:56;;;;;;;;;;;;;;;;;;5053312;28;19944;-72
2024/03/30 07:36:22;;;;;;;;;;;;;;;;;;5053694;28;19909;-72
2024/03/30 07:38:48;;;;;;;;;;;;;;;;;;5053592;28;19909;-72
2024/03/30 07:41:14;;;;;;;;;;;;;;;;;;5053146;28;19909;-72
2024/03/30 07:43:40;;;;;;;;;;;;;;;;;;5053612;28;20015;-72
2024/03/30 07:46:06;;;;;;;;;;;;;;;;;;5053508;28;19909;-72
2024/03/30 07:48:32;;;;;;;;;;;;;;;;;;5051784;28;19917;-72
2024/03/30 07:50:58;;;;;;;;;;;;;;;;;;5053488;28;19987;-72
2024/03/30 07:53:24;;;;;;;;;;;;;;;;;;5053398;28;20432;-72
2024/03/30 07:55:51;;;;;;;;;;;;;;;;;;5053072;28;19955;-72
2024/03/30 07:58:17;;;;;;;;;;;;;;;;;;5052158;28;19982;-72
2024/03/30 08:00:43;;;;;;;;;;;;;;;;;;5052145;28;20442;-72
2024/03/30 08:03:09;;;;;;;;;;;;;;;;;;5053015;28;19942;-73
2024/03/30 08:08:21;;;;;;;;;;;;;;;;;;5112085;27;19916;-71
2024/03/30 08:12:10;;;;;;;;;;;;;;;;;;5112224;27;20286;-71
2024/03/30 08:14:36;;;;;;;;;;;;;;;;;;5111737;28;20015;-71
2024/03/30 08:17:02;;;;;;;;;;;;;;;;;;5109945;28;20318;-71
2024/03/30 08:27:00;;;;;;;;;;;;;;;;;;5132232;27;20002;-72
2024/03/30 08:30:37;;;;;;;;;;;;;;;;;;5091513;27;19917;-71
2024/03/30 08:33:03;;;;;;;;;;;;;;;;;;5091336;28;20003;-72
2024/03/30 08:37:50;;;;;;;;;;;;;;;;;;5091301;27;20291;-70
2024/03/30 08:40:16;;;;;;;;;;;;;;;;;;5090098;28;19913;-71
2024/03/30 08:42:42;;;;;;;;;;;;;;;;;;5091322;28;19914;-71
2024/03/30 08:45:53;;;;;;;;;;;;;;;;;;5153048;27;20291;-71
2024/03/30 08:50:06;;;;;;;;;;;;;;;;;;5112179;27;19912;-73
2024/03/30 08:52:32;;;;;;;;;;;;;;;;;;5111297;28;20459;-72
2024/03/30 08:54:58;;;;;;;;;;;;;;;;;;5111637;28;19974;-72
2024/03/30 08:57:24;;;;;;;;;;;;;;;;;;5111627;28;19998;-72
2024/03/30 09:05:49;;;;;;;;;;;;;;;;;;5091218;27;19913;-73
2024/03/30 09:10:32;;;;;;;;;;;;;;;;;;5112073;27;20014;-70
2024/03/30 09:12:58;;;;;;;;;;;;;;;;;;5111503;28;20375;-71
2024/03/30 09:15:24;;;;;;;;;;;;;;;;;;5111653;28;19977;-71
2024/03/30 09:17:50;;;;;;;;;;;;;;;;;;5111486;28;20364;-71
2024/03/30 09:22:07;;;;;;;;;;;;;;;;;;5092166;28;19917;-71
2024/03/30 09:25:22;;;;;;;;;;;;;;;;;;5112566;27;19916;-72
2024/03/30 09:27:48;;;;;;;;;;;;;;;;;;5111405;28;20014;-73
2024/03/30 09:30:14;;;;;;;;;;;;;;;;;;5111653;28;20004;-72
2024/03/30 09:32:50;;;;;;;;;;;;;;;;;;5111511;27;19916;-72
2024/03/30 09:38:47;;;;;;;;;;;;;;;;;;5071436;28;19917;-73
2024/03/30 09:41:13;;;;;;;;;;;;;;;;;;5070980;28;19919;-72
2024/03/30 09:45:03;;;;;;;;;;;;;;;;;;5111892;27;19912;-72
2024/03/30 09:48:02;;;;;;;;;;;;;;;;;;5131971;27;19915;-72
2024/03/30 09:50:27;;;;;;;;;;;;;;;;;;5132319;27;20010;-72
2024/03/30 09:54:06;;;;;;;;;;;;;;;;;;5091086;28;19916;-74
2024/03/30 09:56:32;;;;;;;;;;;;;;;;;;5091392;28;19995;-73
2024/03/30 09:58:58;;;;;;;;;;;;;;;;;;5091316;28;19908;-73
2024/03/30 10:01:24;;;;;;;;;;;;;;;;;;5090845;28;19909;-73
2024/03/30 10:04:55;;;;;;;;;;;;;;;;;;5112429;27;19918;-72
2024/03/30 10:07:21;;;;;;;;;;;;;;;;;;5111765;28;19955;-72
2024/03/30 10:09:47;;;;;;;;;;;;;;;;;;5111488;28;19947;-72
2024/03/30 10:12:13;;;;;;;;;;;;;;;;;;5111623;28;19912;-72
2024/03/30 10:14:39;;;;;;;;;;;;;;;;;;5112158;28;19990;-71
2024/03/30 10:17:05;;;;;;;;;;;;;;;;;;5111069;28;19915;-71
2024/03/30 10:19:31;;;;;;;;;;;;;;;;;;5111406;28;19908;-71
2024/03/30 10:21:57;;;;;;;;;;;;;;;;;;5111372;28;19908;-71
2024/03/30 10:25:08;;;;;;;;;;;;;;;;;;5091727;27;19916;-71
2024/03/30 10:27:34;;;;;;;;;;;;;;;;;;5091336;28;19999;-72
2024/03/30 10:30:00;;;;;;;;;;;;;;;;;;5090855;28;19908;-72
2024/03/30 10:32:26;;;;;;;;;;;;;;;;;;5091372;28;19916;-72
2024/03/30 10:34:52;;;;;;;;;;;;;;;;;;5091137;28;19908;-73
2024/03/30 10:37:18;;;;;;;;;;;;;;;;;;5090778;28;20261;-73
2024/03/30 10:39:44;;;;;;;;;;;;;;;;;;5091137;28;19990;-73
2024/03/30 10:42:11;;;;;;;;;;;;;;;;;;5089755;28;20284;-73
2024/03/30 10:44:37;;;;;;;;;;;;;;;;;;5089321;28;19940;-73
2024/03/30 10:47:45;;;;;;;;;;;;;;;;;;5091661;27;20295;-71
2024/03/30 10:50:11;;;;;;;;;;;;;;;;;;5091375;28;19912;-71
2024/03/30 10:52:37;;;;;;;;;;;;;;;;;;5091299;28;19915;-72
2024/03/30 10:55:03;;;;;;;;;;;;;;;;;;5091529;28;19915;-73
2024/03/30 10:57:29;;;;;;;;;;;;;;;;;;5090730;28;19908;-74
2024/03/30 11:00:55;;;;;;;;;;;;;;;;;;5112183;27;19912;-72
2024/03/30 11:03:21;;;;;;;;;;;;;;;;;;5110404;28;20455;-71
2024/03/30 11:05:47;;;;;;;;;;;;;;;;;;5111210;28;19908;-72
2024/03/30 11:08:13;;;;;;;;;;;;;;;;;;5111581;28;20345;-72
2024/03/30 11:10:39;;;;;;;;;;;;;;;;;;5111456;28;20387;-72
2024/03/30 11:13:18;;;;;;;;;;;;;;;;;;5111389;27;19912;-72
2024/03/30 11:15:44;;;;;;;;;;;;;;;;;;5111635;28;19912;-72
2024/03/30 11:18:12;;;;;;;;;;;;;;;;;;5111711;28;19934;-72
2024/03/30 11:20:38;;;;;;;;;;;;;;;;;;5111182;28;19911;-74
2024/03/30 11:23:04;;;;;;;;;;;;;;;;;;5111462;28;19961;-73
2024/03/30 11:25:30;;;;;;;;;;;;;;;;;;5111267;28;19938;-72
2024/03/30 11:27:56;;;;;;;;;;;;;;;;;;5111633;28;19951;-73
2024/03/30 11:30:22;;;;;;;;;;;;;;;;;;5110054;28;19915;-73
2024/03/30 11:32:48;;;;;;;;;;;;;;;;;;5111083;28;20285;-72
2024/03/30 11:35:14;;;;;;;;;;;;;;;;;;5111253;28;20368;-73
2024/03/30 11:37:40;;;;;;;;;;;;;;;;;;5111228;28;20382;-72
2024/03/30 11:40:05;;;;;;;;;;;;;;;;;;5110820;28;19912;-73
2024/03/30 11:42:31;;;;;;;;;;;;;;;;;;5109810;28;19912;-73
2024/03/30 11:44:57;;;;;;;;;;;;;;;;;;5109859;28;19912;-73
2024/03/30 11:47:23;;;;;;;;;;;;;;;;;;5110708;28;20062;-73
2024/03/30 11:49:49;;;;;;;;;;;;;;;;;;5111132;28;19973;-74
2024/03/30 11:52:15;;;;;;;;;;;;;;;;;;5109741;28;19920;-71
2024/03/30 11:54:41;;;;;;;;;;;;;;;;;;5110640;28;19908;-71
2024/03/30 11:57:07;;;;;;;;;;;;;;;;;;5110947;28;19919;-72
2024/03/30 12:01:35;;;;;;;;;;;;;;;;;;5091226;27;19913;-72
2024/03/30 12:04:01;;;;;;;;;;;;;;;;;;5090059;28;19927;-72
2024/03/30 12:06:27;;;;;;;;;;;;;;;;;;5089955;28;19909;-72
2024/03/30 12:08:53;;;;;;;;;;;;;;;;;;5089609;28;19912;-72
2024/03/30 12:11:19;;;;;;;;;;;;;;;;;;5091072;28;19908;-73
2024/03/30 12:13:45;;;;;;;;;;;;;;;;;;5091224;28;19915;-71
2024/03/30 12:16:11;;;;;;;;;;;;;;;;;;5090665;28;19908;-71
2024/03/30 12:18:37;;;;;;;;;;;;;;;;;;5091047;28;19916;-71
2024/03/30 12:21:03;;;;;;;;;;;;;;;;;;5090942;28;19924;-72
2024/03/30 12:23:29;;;;;;;;;;;;;;;;;;5090626;28;19909;-73
2024/03/30 12:25:59;;;;;;;;;;;;;;;;;;5090965;28;20321;-73
2024/03/30 12:28:24;;;;;;;;;;;;;;;;;;5091027;28;20323;-72
2024/03/30 12:30:50;;;;;;;;;;;;;;;;;;5090598;28;19975;-72
2024/03/30 12:33:17;;;;;;;;;;;;;;;;;;5090859;28;19908;-72
2024/03/30 12:35:42;;;;;;;;;;;;;;;;;;5089161;28;20419;-72
2024/03/30 12:38:08;;;;;;;;;;;;;;;;;;5089407;28;19956;-72
2024/03/30 12:40:34;;;;;;;;;;;;;;;;;;5090598;28;19916;-72
2024/03/30 12:43:00;;;;;;;;;;;;;;;;;;5090138;28;19931;-72
2024/03/30 12:45:26;;;;;;;;;;;;;;;;;;5090630;28;20007;-73
2024/03/30 12:47:54;;;;;;;;;;;;;;;;;;5090769;28;20421;-72
2024/03/30 12:50:20;;;;;;;;;;;;;;;;;;5090161;28;19958;-72
2024/03/30 12:52:46;;;;;;;;;;;;;;;;;;5089198;28;19916;-72
2024/03/30 12:55:12;;;;;;;;;;;;;;;;;;5090361;28;19916;-73
2024/03/30 12:57:40;;;;;;;;;;;;;;;;;;5089949;28;19908;-73
2024/03/30 13:00:11;;;;;;;;;;;;;;;;;;5088700;28;19970;-73
2024/03/30 13:02:37;;;;;;;;;;;;;;;;;;5090208;28;19937;-72
2024/03/30 13:05:03;;;;;;;;;;;;;;;;;;5089864;28;19955;-73
2024/03/30 13:07:30;;;;;;;;;;;;;;;;;;5090107;28;19908;-73
2024/03/30 13:09:56;;;;;;;;;;;;;;;;;;5088736;28;20280;-73
2024/03/30 13:12:22;;;;;;;;;;;;;;;;;;5079295;28;19908;-72
2024/03/30 13:14:48;;;;;;;;;;;;;;;;;;5075207;28;19916;-72
2024/03/30 13:17:14;;;;;;;;;;;;;;;;;;5076835;28;19908;-72
2024/03/30 13:19:40;;;;;;;;;;;;;;;;;;5076021;28;19916;-73
2024/03/30 13:22:06;;;;;;;;;;;;;;;;;;5075118;28;19913;-72
2024/03/30 13:24:32;;;;;;;;;;;;;;;;;;5076705;28;19909;-72
2024/03/30 13:26:58;;;;;;;;;;;;;;;;;;5075935;28;19908;-73
2024/03/30 13:29:25;;;;;;;;;;;;;;;;;;5076222;28;20410;-73
2024/03/30 13:31:51;;;;;;;;;;;;;;;;;;5076308;28;20369;-72
2024/03/30 13:34:17;;;;;;;;;;;;;;;;;;5075852;28;19931;-72
2024/03/30 13:36:43;;;;;;;;;;;;;;;;;;5076247;28;19935;-73
2024/03/30 13:39:11;;;;;;;;;;;;;;;;;;5075868;28;20364;-72
2024/03/30 13:41:37;;;;;;;;;;;;;;;;;;5076050;28;19913;-73
2024/03/30 13:44:03;;;;;;;;;;;;;;;;;;5076025;28;19920;-72
2024/03/30 13:46:29;;;;;;;;;;;;;;;;;;5075536;28;19909;-72
2024/03/30 13:48:55;;;;;;;;;;;;;;;;;;5075911;28;19909;-74
2024/03/30 13:51:21;;;;;;;;;;;;;;;;;;5074566;28;19908;-72
2024/03/30 13:53:47;;;;;;;;;;;;;;;;;;5075333;28;19951;-73
2024/03/30 13:56:13;;;;;;;;;;;;;;;;;;5074479;28;19920;-72
2024/03/30 13:58:39;;;;;;;;;;;;;;;;;;5075717;28;20003;-72
2024/03/30 14:01:04;;;;;;;;;;;;;;;;;;5091538;28;19920;-72
2024/03/30 14:03:30;;;;;;;;;;;;;;;;;;5095786;28;20463;-71
2024/03/30 14:05:56;;;;;;;;;;;;;;;;;;5095770;28;19908;-71
2024/03/30 14:08:22;;;;;;;;;;;;;;;;;;5095268;28;19908;-71
2024/03/30 14:10:48;;;;;;;;;;;;;;;;;;5095646;28;19959;-71
2024/03/30 14:13:14;;;;;;;;;;;;;;;;;;5095508;28;20421;-72
2024/03/30 14:15:40;;;;;;;;;;;;;;;;;;5095070;28;19953;-72
2024/03/30 14:18:06;;;;;;;;;;;;;;;;;;5095474;28;20287;-72
2024/03/30 14:20:33;;;;;;;;;;;;;;;;;;5095399;28;19916;-72
2024/03/30 14:22:59;;;;;;;;;;;;;;;;;;5094032;28;19915;-72
2024/03/30 14:25:27;;;;;;;;;;;;;;;;;;5095998;28;20264;-72
2024/03/30 14:27:53;;;;;;;;;;;;;;;;;;5095343;28;19912;-72
2024/03/30 14:30:18;;;;;;;;;;;;;;;;;;5094960;28;20004;-72
2024/03/30 14:32:44;;;;;;;;;;;;;;;;;;5095414;28;19953;-72
2024/03/30 14:35:10;;;;;;;;;;;;;;;;;;5076977;28;19914;-72
2024/03/30 14:37:36;;;;;;;;;;;;;;;;;;5076635;28;19915;-73
2024/03/30 14:40:04;;;;;;;;;;;;;;;;;;5095039;28;19970;-73
2024/03/30 14:42:30;;;;;;;;;;;;;;;;;;5094787;28;20414;-72
2024/03/30 14:44:56;;;;;;;;;;;;;;;;;;5095110;28;19908;-72
2024/03/30 14:47:23;;;;;;;;;;;;;;;;;;5095231;28;20351;-72
2024/03/30 14:49:48;;;;;;;;;;;;;;;;;;5094544;28;19912;-73
2024/03/30 14:52:14;;;;;;;;;;;;;;;;;;5094872;28;19962;-72
2024/03/30 14:54:40;;;;;;;;;;;;;;;;;;5094713;28;19909;-73
2024/03/30 14:57:06;;;;;;;;;;;;;;;;;;5094418;28;19944;-72
2024/03/30 14:59:32;;;;;;;;;;;;;;;;;;5094544;28;19920;-73
2024/03/30 15:01:58;;;;;;;;;;;;;;;;;;5094863;28;20390;-73
2024/03/30 15:04:24;;;;;;;;;;;;;;;;;;5076094;28;19991;-73
2024/03/30 15:06:51;;;;;;;;;;;;;;;;;;5095463;28;19914;-74
2024/03/30 15:09:21;;;;;;;;;;;;;;;;;;5077374;28;19961;-74
2024/03/30 15:11:47;;;;;;;;;;;;;;;;;;5094243;28;20284;-73
2024/03/30 15:14:16;;;;;;;;;;;;;;;;;;5094712;28;19948;-73
2024/03/30 15:16:42;;;;;;;;;;;;;;;;;;5095072;28;19935;-73
2024/03/30 15:19:08;;;;;;;;;;;;;;;;;;5093998;28;20342;-73
2024/03/30 15:21:34;;;;;;;;;;;;;;;;;;5094363;28;20003;-73
2024/03/30 15:24:00;;;;;;;;;;;;;;;;;;5094368;28;20241;-74
2024/03/30 15:26:26;;;;;;;;;;;;;;;;;;5093939;28;20348;-73
2024/03/30 15:28:52;;;;;;;;;;;;;;;;;;5076087;28;19908;-73
2024/03/30 15:34:03;;;;;;;;;;;;;;;;;;5094038;28;20461;-73
2024/03/30 15:36:29;;;;;;;;;;;;;;;;;;5094161;28;19996;-73
2024/03/30 15:38:55;;;;;;;;;;;;;;;;;;5093846;28;19909;-73
2024/03/30 15:41:21;;;;;;;;;;;;;;;;;;5075945;28;19924;-73
2024/03/30 15:43:47;;;;;;;;;;;;;;;;;;5094736;28;20408;-72
2024/03/30 15:46:12;;;;;;;;;;;;;;;;;;5093728;28;20062;-72
2024/03/30 15:48:38;;;;;;;;;;;;;;;;;;5094204;28;19974;-73
2024/03/30 15:51:04;;;;;;;;;;;;;;;;;;5093940;28;20379;-73
2024/03/30 15:53:30;;;;;;;;;;;;;;;;;;5093662;28;19912;-73
2024/03/30 15:55:56;;;;;;;;;;;;;;;;;;5094032;28;19909;-73
2024/03/30 15:58:22;;;;;;;;;;;;;;;;;;5075853;28;19916;-73
2024/03/30 16:00:48;;;;;;;;;;;;;;;;;;5093232;28;20280;-73
2024/03/30 16:03:14;;;;;;;;;;;;;;;;;;5075777;28;19909;-73
2024/03/30 16:05:40;;;;;;;;;;;;;;;;;;5093869;28;19951;-73
2024/03/30 16:08:07;;;;;;;;;;;;;;;;;;5093371;28;19908;-73
2024/03/30 16:10:33;;;;;;;;;;;;;;;;;;5075687;28;20004;-73
2024/03/30 16:12:59;;;;;;;;;;;;;;;;;;5075667;28;19915;-73
2024/03/30 16:15:25;;;;;;;;;;;;;;;;;;5093362;28;19908;-73
2024/03/30 16:17:51;;;;;;;;;;;;;;;;;;5093670;28;19908;-73
2024/03/30 16:20:17;;;;;;;;;;;;;;;;;;5093582;28;19969;-73
2024/03/30 16:22:43;;;;;;;;;;;;;;;;;;5093301;28;19916;-73
2024/03/30 16:25:09;;;;;;;;;;;;;;;;;;5093660;28;20004;-73
2024/03/30 16:27:34;;;;;;;;;;;;;;;;;;5093519;28;19914;-73
2024/03/30 16:30:00;;;;;;;;;;;;;;;;;;5093213;28;20016;-73
2024/03/30 16:32:26;;;;;;;;;;;;;;;;;;5093663;28;19912;-73
2024/03/30 16:34:52;;;;;;;;;;;;;;;;;;5075147;28;19908;-73
2024/03/30 16:37:18;;;;;;;;;;;;;;;;;;5093534;28;19909;-73
2024/03/30 16:39:44;;;;;;;;;;;;;;;;;;5093486;28;19935;-72
2024/03/30 16:42:10;;;;;;;;;;;;;;;;;;5093004;28;19916;-72
2024/03/30 16:44:36;;;;;;;;;;;;;;;;;;5093407;28;19914;-72
2024/03/30 16:48:49;;;;;;;;;;;;;;;;;;5092017;28;19938;-72
2024/03/30 16:51:15;;;;;;;;;;;;;;;;;;5091077;28;20432;-72
2024/03/30 16:53:41;;;;;;;;;;;;;;;;;;5091597;28;19950;-72
2024/03/30 16:58:07;;;;;;;;;;;;;;;;;;5090957;27;19916;-74
2024/03/30 17:00:33;;;;;;;;;;;;;;;;;;5090117;28;20451;-72
2024/03/30 17:06:10;;;;;;;;;;;;;;;;;;5091059;27;19916;-72
2024/03/30 17:10:58;;;;;;;;;;;;;;;;;;5091331;27;19912;-72
2024/03/30 17:13:24;;;;;;;;;;;;;;;;;;5091341;28;20098;-72
2024/03/30 17:15:50;;;;;;;;;;;;;;;;;;5091399;28;19912;-72
2024/03/30 17:20:14;;;;;;;;;;;;;;;;;;5072105;28;19913;-72
2024/03/30 17:22:41;;;;;;;;;;;;;;;;;;5070636;28;19919;-73
2024/03/30 17:27:19;;;;;;;;;;;;;;;;;;5112396;27;19916;-72
2024/03/30 17:29:45;;;;;;;;;;;;;;;;;;5111737;28;20002;-73
2024/03/30 17:35:59;;;;;;;;;;;;;;;;;;5092008;27;19916;-72
2024/03/30 17:41:47;;;;;;;;;;;;;;;;;;5132618;27;19922;-71
2024/03/30 17:44:13;;;;;;;;;;;;;;;;;;5132214;27;20006;-72
2024/03/30 17:46:39;;;;;;;;;;;;;;;;;;5131624;27;19946;-71